Historique des stations

Station météo de Vicq-sur-Nahon

Altitude de la station : 145m m







Données météorologiques pour le 23/05/2022
Date
Heure
Températures Humidité Point de rosée Vitesse
du vent
Direction Rafales Windchill Pression Pluviométrie
Cumul
Date
Heure
Températures Humidité Point de rosée Vitesse
du vent
Direction Rafales Windchill Pression Pluviométrie
Cumul
23/05/2022 10:0017.7 °C90 %16.0 °C17 km/hOSO29 km/h17.21004 hPa0.0 mm
23/05/2022 09:4017.8 °C89 %16.0 °C17 km/hOSO34 km/h17.41004 hPa0.0 mm
23/05/2022 09:3017.7 °C89 %15.9 °C17 km/hOSO27 km/h17.41004 hPa0.0 mm
23/05/2022 09:1017.8 °C89 %15.9 °C18 km/hOSO31 km/h17.41004 hPa0.0 mm
23/05/2022 09:0017.9 °C89 %16.1 °C19 km/hOSO27 km/h17.51003 hPa0.0 mm
23/05/2022 08:4018.1 °C88 %16.1 °C19 km/hOSO34 km/h17.51003 hPa0.0 mm
23/05/2022 08:3017.9 °C90 %16.2 °C18 km/hSO27 km/h17.41003 hPa0.0 mm
23/05/2022 08:1017.8 °C90 %16.1 °C18 km/hSO32 km/h17.21003 hPa0.0 mm
23/05/2022 08:0017.5 °C90 %15.8 °C18 km/hSO27 km/h17.01003 hPa0.0 mm
23/05/2022 07:4017.5 °C91 %16.0 °C19 km/hSO29 km/h16.91003 hPa0.0 mm
23/05/2022 07:3017.5 °C91 %16.0 °C19 km/hSO35 km/h16.81004 hPa0.0 mm
23/05/2022 07:1017.6 °C91 %16.1 °C18 km/hSO29 km/h16.91004 hPa0.0 mm
23/05/2022 07:0017.7 °C91 %16.2 °C17 km/hSO29 km/h17.21004 hPa0.0 mm
23/05/2022 06:4017.9 °C92 %16.6 °C15 km/hSO32 km/h17.31004 hPa0.0 mm
23/05/2022 06:3017.9 °C93 %16.8 °C14 km/hSO27 km/h17.61004 hPa0.0 mm
23/05/2022 06:1018.1 °C92 %16.8 °C13 km/hSO23 km/h18.01004 hPa0.0 mm
23/05/2022 06:0018.3 °C92 %17.0 °C13 km/hSO24 km/h18.21004 hPa0.0 mm
23/05/2022 05:4018.4 °C93 %17.3 °C12 km/hSO29 km/h18.31004 hPa0.0 mm
23/05/2022 05:3018.5 °C94 %17.5 °C10 km/hOSO19 km/h18.51005 hPa0.0 mm
23/05/2022 05:1018.4 °C94 %17.5 °C8 km/hOSO21 km/h18.41005 hPa0.0 mm
23/05/2022 05:0018.3 °C94 %17.3 °C6 km/hOSO16 km/h18.31005 hPa0.0 mm
23/05/2022 04:4018.2 °C95 %17.4 °C5 km/hOSO15 km/h18.21005 hPa0.0 mm
23/05/2022 04:3017.7 °C94 %16.7 °C5 km/hS6 km/h17.71005 hPa0.0 mm
23/05/2022 04:1017.6 °C93 %16.5 °C6 km/hS6 km/h17.61005 hPa0.0 mm
23/05/2022 03:4017.7 °C91 %16.2 °C11 km/hS15 km/h17.71005 hPa0.0 mm
23/05/2022 03:3017.7 °C91 %16.2 °C12 km/hSSO18 km/h17.71005 hPa0.0 mm
23/05/2022 03:1017.7 °C91 %16.2 °C11 km/hSSO18 km/h17.71005 hPa0.0 mm
23/05/2022 03:0017.8 °C91 %16.3 °C10 km/hSSO19 km/h17.71005 hPa0.0 mm
23/05/2022 02:4017.8 °C91 %16.3 °C9 km/hSSO19 km/h17.81005 hPa0.0 mm
23/05/2022 02:3017.7 °C92 %16.4 °C8 km/hSSO15 km/h17.71005 hPa0.0 mm
23/05/2022 02:1017.9 °C91 %16.4 °C8 km/hS13 km/h17.91005 hPa0.0 mm
23/05/2022 01:4018.0 °C91 %16.5 °C4 km/hS18 km/h18.01005 hPa2.6 mm
23/05/2022 01:3017.9 °C92 %16.6 °C3 km/hS13 km/h17.91005 hPa2.6 mm
23/05/2022 00:4018.6 °C89 %16.8 °C5 km/hE16 km/h18.61005 hPa2.6 mm
23/05/2022 00:3018.7 °C88 %16.7 °C5 km/h31 km/h18.71004 hPa2.6 mm
23/05/2022 00:1019.1 °C87 %16.9 °C3 km/hESE6 km/h19.11007 hPa2.2 mm
23/05/2022 00:0019.4 °C85 %16.9 °C4 km/h16 km/h19.41007 hPa2.0 mm


Minima :

Température : 17.5 °C
Humidité : 85 %
Point de rosée : 15.8 °C
Vent moyen : 3 km/h
Windchill : 16.8
Pression atm. : 1003 hPa
Maxima :

Température : 19.4 °C
Humidité : 95 %
Point de rosée : 17.5 °C
Vent moyen : 19 km/h
Windchill : 19.4
Pression atm. : 1007 hPa
Rafales max : 35 km/h
Cumul de pluie sur 24H : 2.6 mm

Vicq-sur-nahon est une commune du département Indre (36).
La station météorologique du réseau de l'association la plus proche de Vicq-sur-Nahon est celle de Lucay-le-Mâle



Icône Facebook Association Météo Centre Icône Twitter Association Météo Centre Icône Chaîne Youtube Association Météo Centre Icône contact Association Météo Centre Icône Insta Association Météo Centre